METAR LOCAUX

2019/11/22 11:00 LFST 221100Z AUTO 05001KT 8000 FEW004 07/05 Q1007 TEMPO 3500 BR BECMG BKN004
2019/11/22 10:50 EDSB 221050Z 36004KT 320V040 3000 BR OVC003 04/04 Q1008
2019/11/22 11:00 LFGA 221100Z AUTO 06003KT 020V100 CAVOK 08/05 Q1007
www.noaa.gov

Ne pas utiliser pour préparer ou effectuer un vol: Utilisez la documentation officielle disponible sur aviation.meteo.fr (Aéroweb)


"Le soleil du matin ne dure pas forcément toute la journée."

Animation satellite IR

Meteociel.fr

"Derrière chaque nuage se cache le ciel bleu."

Radar pluie

Infoclimat.fr

"Si tu veux l’arc-en-ciel, tu dois supporter la pluie."
Dolly Parton

Nébulosité (octas)

Meteociel.fr

"Le soleil est souvent obscurci par les nuages et la raison par les passions."
Démophile

Impacts de foudre

www.meteo60.fr

"Celui que frappe la foudre n'entend pas le tonnerre."

Vigilance météo

vigilance-meteo.fr

"Tout nuage n'enfante pas une tempête."
William Shakespeare

TAF locaux

2019/11/22 12:21 TAF LFST 221104Z 2212/2312 02004KT 8000 FEW005 PROB40 TEMPO 2212/2215 4000 BR BKN004 BECMG 2215/2218 3000 BR BKN003 PROB30 TEMPO 2217/2303 0600 FG VV/// BECMG 2307/2310 9000 NSW FEW007 BKN190
2019/11/22 10:07 TAF AMD EDSB 221001Z 2210/2306 03005KT 4000 BR NSC TEMPO 2210/2212 1200 BR BKN001 BECMG 2210/2213 8000 BECMG 2217/2220 0300 FG BKN003
www.noaa.gov

Ne pas utiliser pour préparer ou effectuer un vol: Utilisez la documentation officielle disponible sur aviation.meteo.fr (Aéroweb)


"Les jours où le ciel est gris, le soleil n'a pas disparu à tout jamais."
Arnaud Desjardins

Prévisions 7 jours


Meteoblue.com

"Quand les crapauds chantent, le beau temps s'avance !"